createdAt,value
2019-04-16T00:01:30.698Z,101938.23
2019-04-16T00:04:01.746Z,101930.03
2019-04-16T00:06:45.696Z,101929.97
2019-04-16T00:09:20.975Z,101929.05
2019-04-16T00:11:52.047Z,101932.91
2019-04-16T00:14:28.939Z,101930.28
2019-04-16T00:16:58.375Z,101934.94
2019-04-16T00:19:27.790Z,101929.78
2019-04-16T00:22:02.018Z,101928.45
2019-04-16T00:24:35.825Z,101926.70
2019-04-16T00:27:06.892Z,101926.25
2019-04-16T00:29:39.422Z,101921.89
2019-04-16T00:32:09.773Z,101925.73
2019-04-16T00:34:39.637Z,101920.95
2019-04-16T00:37:11.934Z,101920.80
2019-04-16T00:39:41.413Z,101923.81
2019-04-16T00:42:15.459Z,101918.09
2019-04-16T00:44:44.943Z,101909.38
2019-04-16T00:47:14.385Z,101906.71
2019-04-16T00:49:44.181Z,101901.92
2019-04-16T00:52:14.256Z,101907.46
2019-04-16T00:54:43.671Z,101903.55
2019-04-16T00:57:17.659Z,101900.16
2019-04-16T00:59:45.568Z,101899.67
2019-04-16T01:02:15.075Z,101905.34
2019-04-16T01:04:45.895Z,101905.80
2019-04-16T01:07:15.483Z,101904.45
2019-04-16T01:09:44.874Z,101904.64
2019-04-16T01:12:15.819Z,101915.45
2019-04-16T01:14:45.294Z,101911.94
2019-04-16T01:17:17.262Z,101902.78
2019-04-16T01:19:47.431Z,101916.10
2019-04-16T01:22:16.966Z,101910.52
2019-04-16T01:24:46.434Z,101914.77
2019-04-16T01:27:16.349Z,101910.43
2019-04-16T01:29:45.760Z,101909.10
2019-04-16T01:32:20.355Z,101904.29
2019-04-16T01:35:05.596Z,101900.41
2019-04-16T01:37:42.908Z,101907.21
2019-04-16T01:40:18.401Z,101901.88
2019-04-16T01:42:45.347Z,101903.95
2019-04-16T01:45:14.772Z,101896.97
2019-04-16T01:47:44.184Z,101896.98
2019-04-16T01:50:14.120Z,101896.01
2019-04-16T01:52:49.455Z,101900.27
2019-04-16T01:55:16.466Z,101900.99
2019-04-16T01:57:45.874Z,101903.52
2019-04-16T02:00:16.913Z,101897.87
2019-04-16T02:02:50.845Z,101906.61
2019-04-16T02:05:23.966Z,101901.52
2019-04-16T02:07:56.375Z,101901.16
2019-04-16T02:10:26.233Z,101898.88
2019-04-16T02:12:56.050Z,101904.31
2019-04-16T02:15:25.548Z,101899.44
2019-04-16T02:17:58.764Z,101906.49
2019-04-16T02:20:27.220Z,101909.24
2019-04-16T02:22:56.642Z,101908.79
2019-04-16T02:25:27.194Z,101904.49
2019-04-16T02:27:57.062Z,101900.77
2019-04-16T02:30:27.278Z,101908.47
2019-04-16T02:33:02.776Z,101905.03
2019-04-16T02:35:46.972Z,101903.50
2019-04-16T02:38:17.963Z,101905.63
2019-04-16T02:40:52.954Z,101904.56
2019-04-16T02:43:20.577Z,101900.67
2019-04-16T02:45:56.795Z,101903.69
2019-04-16T02:48:21.245Z,101896.55
2019-04-16T02:50:52.902Z,101896.32
2019-04-16T02:53:39.019Z,101897.89
2019-04-16T02:56:19.356Z,101895.14
2019-04-16T02:58:50.549Z,101897.50
2019-04-16T03:01:21.751Z,101890.95
2019-04-16T03:04:05.073Z,101890.89
2019-04-16T03:06:36.085Z,101888.31
2019-04-16T03:09:09.176Z,101886.48
2019-04-16T03:11:39.289Z,101883.60
2019-04-16T03:14:09.027Z,101877.45
2019-04-16T03:16:56.415Z,101880.87
2019-04-16T03:19:30.159Z,101886.39
2019-04-16T03:22:03.430Z,101882.27
2019-04-16T03:24:33.360Z,101880.54
2019-04-16T03:27:05.926Z,101874.86
2019-04-16T03:29:35.508Z,101879.84
2019-04-16T03:32:05.020Z,101872.81
2019-04-16T03:34:34.646Z,101876.05
2019-04-16T03:37:05.087Z,101870.34
2019-04-16T03:39:35.070Z,101870.02
2019-04-16T03:42:05.983Z,101864.52
2019-04-16T03:44:37.248Z,101855.85
2019-04-16T03:47:06.600Z,101857.67
2019-04-16T03:49:36.033Z,101859.37
2019-04-16T03:52:08.766Z,101857.93
2019-04-16T03:54:36.579Z,101854.63
2019-04-16T03:57:07.644Z,101854.19
2019-04-16T03:59:39.959Z,101850.00
2019-04-16T04:02:09.554Z,101856.76
2019-04-16T04:04:40.124Z,101852.90
2019-04-16T04:07:11.995Z,101856.05
2019-04-16T04:09:40.590Z,101846.30
2019-04-16T04:12:13.366Z,101853.66
2019-04-16T04:14:43.022Z,101848.77
2019-04-16T04:17:13.409Z,101847.86
2019-04-16T04:19:46.147Z,101847.38
2019-04-16T04:22:17.218Z,101841.26
2019-04-16T04:24:47.165Z,101838.94
2019-04-16T04:27:19.023Z,101847.04
2019-04-16T04:29:47.755Z,101844.16
2019-04-16T04:32:18.774Z,101847.95
2019-04-16T04:34:49.436Z,101839.09
2019-04-16T04:37:20.189Z,101848.02
2019-04-16T04:39:49.657Z,101847.20
2019-04-16T04:42:19.665Z,101845.34
2019-04-16T04:44:50.949Z,101842.05
2019-04-16T04:47:20.675Z,101845.12
2019-04-16T04:49:52.471Z,101847.38
2019-04-16T04:52:21.879Z,101845.81
2019-04-16T04:54:53.971Z,101844.64
2019-04-16T04:57:22.499Z,101845.64
2019-04-16T04:59:51.943Z,101842.33
2019-04-16T05:02:21.363Z,101845.31
2019-04-16T05:07:48.705Z,101841.24
2019-04-16T05:10:18.147Z,101850.37
2019-04-16T05:12:47.690Z,101846.05
2019-04-16T05:15:19.099Z,101839.28
2019-04-16T05:17:48.517Z,101847.94
2019-04-16T05:20:18.004Z,101843.70
2019-04-16T05:22:47.418Z,101846.41
2019-04-16T05:25:19.667Z,101848.66
2019-04-16T05:27:49.095Z,101837.60
2019-04-16T05:30:21.748Z,101846.79
2019-04-16T05:32:51.679Z,101845.52
2019-04-16T05:35:21.645Z,101848.29
2019-04-16T05:37:52.078Z,101844.86
2019-04-16T05:40:21.706Z,101847.88
2019-04-16T05:42:52.811Z,101853.55
2019-04-16T05:45:22.342Z,101851.41
2019-04-16T05:47:51.785Z,101852.88
2019-04-16T05:50:21.215Z,101855.06
2019-04-16T05:52:50.748Z,101855.24
2019-04-16T05:55:38.023Z,101850.96
2019-04-16T05:58:07.460Z,101848.99
2019-04-16T06:00:47.152Z,101847.42
2019-04-16T06:03:20.591Z,101843.31
2019-04-16T06:05:47.700Z,101843.16
2019-04-16T06:08:17.156Z,101839.11
2019-04-16T06:10:49.695Z,101842.95
2019-04-16T06:13:31.437Z,101844.82
2019-04-16T06:16:02.599Z,101847.58
2019-04-16T06:18:37.955Z,101844.77
2019-04-16T06:21:14.622Z,101844.85
2019-04-16T06:23:48.223Z,101845.43
2019-04-16T06:26:21.014Z,101840.30
2019-04-16T06:28:55.952Z,101851.56
2019-04-16T06:31:38.768Z,101849.98
2019-04-16T06:34:08.860Z,101849.69
2019-04-16T06:36:39.976Z,101842.64
2019-04-16T06:39:13.916Z,101847.05
2019-04-16T06:42:01.408Z,101837.75
2019-04-16T06:44:34.961Z,101840.00
2019-04-16T06:47:10.476Z,101843.31
2019-04-16T06:49:41.899Z,101836.84
2019-04-16T06:52:16.788Z,101834.28
2019-04-16T06:55:04.365Z,101836.13
2019-04-16T06:57:44.460Z,101838.83
2019-04-16T07:00:21.723Z,101839.72
2019-04-16T07:03:08.735Z,101841.50
2019-04-16T07:05:54.966Z,101841.20
2019-04-16T07:08:41.933Z,101833.45
2019-04-16T07:11:16.158Z,101831.84
2019-04-16T07:13:45.595Z,101833.22
2019-04-16T07:16:15.031Z,101830.30
2019-04-16T07:18:44.514Z,101819.17
2019-04-16T07:21:14.546Z,101821.75
2019-04-16T07:23:46.515Z,101821.85
2019-04-16T07:26:16.597Z,101826.27
2019-04-16T07:29:04.356Z,101816.78
2019-04-16T07:31:38.037Z,101821.55
2019-04-16T07:34:21.157Z,101823.37
2019-04-16T07:36:56.623Z,101821.69
2019-04-16T07:39:37.843Z,101829.97
2019-04-16T07:42:11.730Z,101826.09
2019-04-16T07:44:57.071Z,101824.81
2019-04-16T07:47:34.126Z,101826.13
2019-04-16T07:50:15.532Z,101823.10
2019-04-16T07:53:02.557Z,101826.11
2019-04-16T07:55:42.569Z,101820.93
2019-04-16T07:58:12.009Z,101819.59
2019-04-16T08:00:41.679Z,101818.28
2019-04-16T08:03:14.194Z,101816.53
2019-04-16T08:05:43.686Z,101816.92
2019-04-16T08:08:13.112Z,101813.88
2019-04-16T08:10:42.615Z,101816.02
2019-04-16T08:13:16.844Z,101811.16
2019-04-16T08:15:46.459Z,101808.40
2019-04-16T08:18:16.053Z,101805.72
2019-04-16T08:21:00.025Z,101808.26
2019-04-16T08:23:27.110Z,101810.76
2019-04-16T08:26:03.513Z,101801.98
2019-04-16T08:28:29.318Z,101800.78
2019-04-16T08:30:58.915Z,101800.34
2019-04-16T08:33:29.262Z,101801.45
2019-04-16T08:35:58.808Z,101810.81
2019-04-16T08:38:28.214Z,101793.52
2019-04-16T08:40:57.660Z,101799.41
2019-04-16T08:43:29.649Z,101806.56
2019-04-16T08:45:58.430Z,101802.08
2019-04-16T08:48:27.922Z,101797.69
2019-04-16T08:50:58.406Z,101800.91
2019-04-16T08:53:28.652Z,101801.28
2019-04-16T08:55:58.269Z,101792.19
2019-04-16T08:58:27.708Z,101786.63
2019-04-16T09:00:57.291Z,101788.20
2019-04-16T09:03:29.916Z,101793.58
2019-04-16T09:05:57.923Z,101791.77
2019-04-16T09:08:46.937Z,101787.35
2019-04-16T09:11:23.472Z,101788.94
2019-04-16T09:13:59.162Z,101780.17
2019-04-16T09:16:28.851Z,101779.09
2019-04-16T09:19:05.917Z,101772.41
2019-04-16T09:21:35.343Z,101774.36
2019-04-16T09:24:20.103Z,101767.78
2019-04-16T09:26:52.689Z,101766.20
2019-04-16T09:29:40.817Z,101768.28
2019-04-16T09:32:11.909Z,101777.38
2019-04-16T09:34:45.960Z,101759.26
2019-04-16T09:37:28.622Z,101744.83
2019-04-16T09:39:58.864Z,101752.34
2019-04-16T09:42:28.310Z,101744.54
2019-04-16T09:45:01.770Z,101744.54
2019-04-16T09:47:32.529Z,101755.91
2019-04-16T09:50:02.794Z,101751.26
2019-04-16T09:52:32.747Z,101744.19
2019-04-16T09:55:02.239Z,101752.24
2019-04-16T09:57:32.418Z,101747.33
2019-04-16T10:00:03.607Z,101752.05
2019-04-16T10:02:34.201Z,101748.12
2019-04-16T10:05:05.460Z,101740.33
2019-04-16T10:07:40.024Z,101739.22
2019-04-16T10:10:06.761Z,101740.83
2019-04-16T10:12:36.265Z,101730.27
2019-04-16T10:15:07.996Z,101735.86
2019-04-16T10:17:37.499Z,101736.82
2019-04-16T10:20:07.891Z,101744.61
2019-04-16T10:22:37.312Z,101729.09
2019-04-16T10:25:14.186Z,101729.00
2019-04-16T10:27:45.339Z,101726.42
2019-04-16T10:30:25.813Z,101718.59
2019-04-16T10:32:55.380Z,101722.30
2019-04-16T10:35:25.695Z,101721.81
2019-04-16T10:37:55.210Z,101716.00
2019-04-16T10:40:26.539Z,101707.70
2019-04-16T10:43:13.079Z,101712.91
2019-04-16T10:45:58.776Z,101704.41
2019-04-16T10:48:47.822Z,101703.67
2019-04-16T10:51:28.480Z,101698.23
2019-04-16T10:53:59.647Z,101689.14
2019-04-16T10:56:49.030Z,101691.02
2019-04-16T10:59:38.173Z,101687.81
2019-04-16T11:02:28.662Z,101695.92
2019-04-16T11:04:58.291Z,101681.25
2019-04-16T11:07:29.410Z,101685.81
2019-04-16T11:09:58.941Z,101685.22
2019-04-16T11:12:28.451Z,101677.88
2019-04-16T11:14:59.121Z,101677.08
2019-04-16T11:17:29.263Z,101670.72
2019-04-16T11:20:00.121Z,101663.05
2019-04-16T11:22:29.947Z,101671.39
2019-04-16T11:24:59.524Z,101664.83
2019-04-16T11:27:29.018Z,101667.81
2019-04-16T11:29:58.480Z,101659.83
2019-04-16T11:32:29.580Z,101655.25
2019-04-16T11:34:59.059Z,101660.31
2019-04-16T11:37:28.506Z,101663.64
2019-04-16T11:39:57.995Z,101667.81
2019-04-16T11:42:27.479Z,101661.64
2019-04-16T11:44:56.949Z,101659.72
2019-04-16T11:47:28.122Z,101662.45
2019-04-16T11:49:57.559Z,101663.75
2019-04-16T11:52:27.123Z,101650.84
2019-04-16T11:54:56.579Z,101651.61
2019-04-16T11:57:26.042Z,101652.87
2019-04-16T12:00:06.393Z,101656.12
2019-04-16T12:02:31.926Z,101659.08
2019-04-16T12:05:11.755Z,101665.27
2019-04-16T12:07:42.897Z,101661.85
2019-04-16T12:10:30.774Z,101666.89
2019-04-16T12:13:04.885Z,101654.71
2019-04-16T12:15:41.731Z,101649.00
2019-04-16T12:18:15.882Z,101657.37
2019-04-16T12:20:49.694Z,101656.31
2019-04-16T12:23:33.092Z,101659.33
2019-04-16T12:26:10.542Z,101647.91
2019-04-16T12:28:44.759Z,101649.55
2019-04-16T12:31:17.300Z,101652.62
2019-04-16T12:33:54.171Z,101643.70
2019-04-16T12:36:34.599Z,101636.74
2019-04-16T12:39:06.889Z,101636.86
2019-04-16T12:41:38.846Z,101645.20
2019-04-16T12:44:26.080Z,101639.36
2019-04-16T12:47:09.432Z,101646.76
2019-04-16T12:49:56.546Z,101639.38
2019-04-16T12:52:39.678Z,101642.68
2019-04-16T12:55:23.540Z,101637.76
2019-04-16T12:57:58.775Z,101635.41
2019-04-16T13:00:34.522Z,101641.80
2019-04-16T13:03:16.378Z,101636.05
2019-04-16T13:05:44.797Z,101637.36
2019-04-16T13:08:18.984Z,101632.11
2019-04-16T13:11:02.543Z,101626.48
2019-04-16T13:13:52.024Z,101628.73
2019-04-16T13:16:26.628Z,101625.80
2019-04-16T13:19:06.741Z,101618.77
2019-04-16T13:21:37.887Z,101623.27
2019-04-16T13:24:20.696Z,101624.36
2019-04-16T13:26:54.575Z,101611.45
2019-04-16T13:29:29.373Z,101617.70
2019-04-16T13:31:56.915Z,101617.13
2019-04-16T13:34:27.037Z,101618.77
2019-04-16T13:36:59.344Z,101613.70
2019-04-16T13:39:32.051Z,101620.55
2019-04-16T13:42:01.624Z,101615.63
2019-04-16T13:44:40.665Z,101620.55
2019-04-16T13:47:09.767Z,101609.10
2019-04-16T13:49:40.873Z,101601.73
2019-04-16T13:52:11.944Z,101602.52
2019-04-16T13:54:59.400Z,101591.60
2019-04-16T13:57:30.451Z,101595.05
2019-04-16T14:00:04.313Z,101590.16
2019-04-16T14:02:44.077Z,101590.95
2019-04-16T14:05:13.746Z,101595.81
2019-04-16T14:07:43.259Z,101594.11
2019-04-16T14:10:12.959Z,101589.63
2019-04-16T14:12:42.799Z,101600.84
2019-04-16T14:15:13.239Z,101592.27
2019-04-16T14:17:52.460Z,101600.84
2019-04-16T14:20:14.612Z,101594.12
2019-04-16T14:22:44.177Z,101597.53
2019-04-16T14:25:13.907Z,101590.47
2019-04-16T14:27:44.866Z,101599.06
2019-04-16T14:30:16.306Z,101597.16
2019-04-16T14:32:45.800Z,101599.80
2019-04-16T14:35:32.434Z,101599.37
2019-04-16T14:37:49.788Z,101602.09
2019-04-16T14:40:21.545Z,101595.56
2019-04-16T14:42:56.276Z,101600.18
2019-04-16T14:45:27.240Z,101592.27
2019-04-16T14:47:56.733Z,101587.66
2019-04-16T14:50:26.424Z,101590.36
2019-04-16T14:52:55.960Z,101599.66
2019-04-16T14:55:41.981Z,101596.88
2019-04-16T14:58:27.796Z,101598.13
2019-04-16T15:00:59.179Z,101588.52
2019-04-16T15:03:49.944Z,101593.31
2019-04-16T15:06:26.990Z,101590.64
2019-04-16T15:09:14.963Z,101587.06
2019-04-16T15:11:46.075Z,101584.87
2019-04-16T15:14:26.781Z,101586.13
2019-04-16T15:17:00.641Z,101590.77
2019-04-16T15:19:31.709Z,101592.81
2019-04-16T15:22:19.189Z,101591.80
2019-04-16T15:24:50.509Z,101592.33
2019-04-16T15:27:36.830Z,101592.75
2019-04-16T15:30:11.331Z,101588.83
2019-04-16T15:32:42.489Z,101593.97
2019-04-16T15:35:31.850Z,101595.05
2019-04-16T15:38:08.592Z,101593.31
2019-04-16T15:40:42.189Z,101589.47
2019-04-16T15:43:19.176Z,101589.63
2019-04-16T15:45:55.187Z,101596.22
2019-04-16T15:48:26.390Z,101595.42
2019-04-16T15:50:57.487Z,101603.06
2019-04-16T15:53:34.312Z,101595.70
2019-04-16T15:56:05.584Z,101593.68
2019-04-16T15:58:54.926Z,101605.68
2019-04-16T16:01:28.720Z,101607.80
2019-04-16T16:04:02.744Z,101609.72
2019-04-16T16:06:33.879Z,101605.83
2019-04-16T16:09:11.693Z,101600.84
2019-04-16T16:11:44.527Z,101597.72
2019-04-16T16:14:15.806Z,101604.38
2019-04-16T16:16:47.802Z,101602.92
2019-04-16T16:19:16.580Z,101610.05
2019-04-16T16:21:46.039Z,101604.73
2019-04-16T16:24:15.469Z,101612.91
2019-04-16T16:26:45.040Z,101612.05
2019-04-16T16:29:14.492Z,101615.39
2019-04-16T16:31:43.946Z,101623.23
2019-04-16T16:34:13.364Z,101622.11
2019-04-16T16:36:42.885Z,101623.33
2019-04-16T16:39:12.336Z,101616.88
2019-04-16T16:41:46.335Z,101626.70
2019-04-16T16:44:14.685Z,101625.69
2019-04-16T16:46:56.753Z,101627.25
2019-04-16T16:49:20.087Z,101626.59
2019-04-16T16:52:06.424Z,101623.06
2019-04-16T16:54:35.917Z,101615.95
2019-04-16T16:57:13.071Z,101621.03
2019-04-16T16:59:44.623Z,101626.66
2019-04-16T17:02:21.786Z,101619.95
2019-04-16T17:04:52.853Z,101632.48
2019-04-16T17:07:22.357Z,101631.17
2019-04-16T17:09:53.114Z,101637.41
2019-04-16T17:12:22.695Z,101633.89
2019-04-16T17:14:54.300Z,101634.64
2019-04-16T17:17:23.821Z,101633.09
2019-04-16T17:19:54.916Z,101636.22
2019-04-16T17:22:24.919Z,101642.91
2019-04-16T17:24:56.432Z,101649.48
2019-04-16T17:27:26.096Z,101638.62
2019-04-16T17:29:55.934Z,101646.40
2019-04-16T17:32:25.521Z,101646.68
2019-04-16T17:34:54.966Z,101649.30
2019-04-16T17:37:27.979Z,101650.33
2019-04-16T17:39:57.006Z,101655.16
2019-04-16T17:42:37.590Z,101655.43
2019-04-16T17:45:14.295Z,101660.00
2019-04-16T17:47:55.666Z,101660.88
2019-04-16T17:50:36.702Z,101664.76
2019-04-16T17:53:16.155Z,101667.17
2019-04-16T17:55:50.349Z,101670.67
2019-04-16T17:58:27.225Z,101672.38
2019-04-16T18:01:00.237Z,101675.70
2019-04-16T18:03:49.603Z,101675.48
2019-04-16T18:06:38.038Z,101679.70
2019-04-16T18:09:12.718Z,101679.03
2019-04-16T18:11:44.744Z,101684.35
2019-04-16T18:14:28.531Z,101687.22
2019-04-16T18:17:05.688Z,101694.77
2019-04-16T18:19:36.719Z,101697.21
2019-04-16T18:22:09.539Z,101700.95
2019-04-16T18:24:40.682Z,101702.23
2019-04-16T18:27:29.506Z,101709.99
2019-04-16T18:30:07.116Z,101711.55
2019-04-16T18:32:39.381Z,101717.38
2019-04-16T18:35:25.759Z,101721.25
2019-04-16T18:38:02.665Z,101720.46
2019-04-16T18:40:33.951Z,101727.38
2019-04-16T18:43:10.577Z,101721.27
2019-04-16T18:46:00.038Z,101724.50
2019-04-16T18:48:31.105Z,101732.32
2019-04-16T18:51:01.954Z,101730.92
2019-04-16T18:53:31.541Z,101732.97
2019-04-16T18:56:04.167Z,101737.39
2019-04-16T18:58:33.755Z,101733.18
2019-04-16T19:01:13.834Z,101733.03
2019-04-16T19:03:43.365Z,101743.20
2019-04-16T19:06:14.481Z,101741.69
2019-04-16T19:08:43.978Z,101746.69
2019-04-16T19:11:13.629Z,101746.40
2019-04-16T19:13:43.066Z,101756.12
2019-04-16T19:16:12.583Z,101755.32
2019-04-16T19:18:42.189Z,101760.34
2019-04-16T19:21:14.784Z,101759.91
2019-04-16T19:23:45.850Z,101764.73
2019-04-16T19:26:15.359Z,101770.23
2019-04-16T19:28:45.601Z,101769.45
2019-04-16T19:31:15.210Z,101774.02
2019-04-16T19:33:44.732Z,101776.37
2019-04-16T19:36:14.300Z,101783.72
2019-04-16T19:38:43.760Z,101792.98
2019-04-16T19:41:13.214Z,101789.24
2019-04-16T19:43:42.650Z,101788.80
2019-04-16T19:46:15.340Z,101795.22
2019-04-16T19:48:44.859Z,101794.41
2019-04-16T19:51:19.643Z,101799.77
2019-04-16T19:53:50.066Z,101810.12
2019-04-16T19:56:21.119Z,101810.12
2019-04-16T19:58:51.644Z,101805.07
2019-04-16T20:01:21.309Z,101809.08
2019-04-16T20:03:51.957Z,101810.42
2019-04-16T20:06:25.250Z,101809.17
2019-04-16T20:08:52.601Z,101809.17
2019-04-16T20:11:23.548Z,101810.86
2019-04-16T20:13:53.605Z,101810.86
2019-04-16T20:16:24.198Z,101820.36
2019-04-16T20:18:53.641Z,101825.73
2019-04-16T20:21:23.336Z,101827.44
2019-04-16T20:23:53.172Z,101824.07
2019-04-16T20:26:22.727Z,101822.70
2019-04-16T20:28:52.257Z,101825.07
2019-04-16T20:31:21.707Z,101820.20
2019-04-16T20:33:51.239Z,101825.27
2019-04-16T20:36:22.743Z,101825.84
2019-04-16T20:38:53.679Z,101824.58
2019-04-16T20:41:23.130Z,101827.35
2019-04-16T20:43:52.739Z,101829.89
2019-04-16T20:46:22.189Z,101823.73
2019-04-16T20:49:06.514Z,101828.30
2019-04-16T20:51:26.342Z,101828.33
2019-04-16T20:53:54.055Z,101827.61
2019-04-16T20:56:23.521Z,101825.84
2019-04-16T20:58:52.957Z,101830.19
2019-04-16T21:01:34.002Z,101837.17
2019-04-16T21:04:05.065Z,101833.13
2019-04-16T21:06:27.629Z,101836.67
2019-04-16T21:08:58.238Z,101835.45
2019-04-16T21:11:27.991Z,101834.67
2019-04-16T21:13:57.446Z,101838.98
2019-04-16T21:16:26.880Z,101831.72
2019-04-16T21:18:56.382Z,101842.33
2019-04-16T21:21:26.007Z,101843.20
2019-04-16T21:23:55.474Z,101841.94
2019-04-16T21:26:24.929Z,101845.34
2019-04-16T21:29:03.026Z,101833.72
2019-04-16T21:31:42.294Z,101844.14
2019-04-16T21:34:13.467Z,101849.02
2019-04-16T21:36:44.573Z,101852.98
2019-04-16T21:42:06.853Z,101853.44
2019-04-16T21:44:37.920Z,101859.20
2019-04-16T21:47:07.648Z,101856.16
2019-04-16T21:49:38.965Z,101858.42
2019-04-16T21:52:08.278Z,101858.91
2019-04-16T21:54:39.123Z,101866.68
2019-04-16T21:57:12.924Z,101863.23
2019-04-16T21:59:39.918Z,101865.95
2019-04-16T22:02:13.787Z,101864.20
2019-04-16T22:04:42.744Z,101862.94
2019-04-16T22:07:13.708Z,101867.33
2019-04-16T22:09:43.209Z,101864.72
2019-04-16T22:12:15.567Z,101863.47
2019-04-16T22:14:43.892Z,101867.83
2019-04-16T22:17:13.428Z,101867.02
2019-04-16T22:19:54.003Z,101869.73
2019-04-16T22:22:14.999Z,101871.50
2019-04-16T22:24:45.189Z,101869.00
2019-04-16T22:27:14.619Z,101870.77
2019-04-16T22:29:47.271Z,101876.92
2019-04-16T22:32:15.181Z,101882.11
2019-04-16T22:34:44.690Z,101880.83
2019-04-16T22:37:14.113Z,101883.48
2019-04-16T22:40:00.543Z,101889.62
2019-04-16T22:42:34.307Z,101886.58
2019-04-16T22:45:12.696Z,101883.56
2019-04-16T22:47:46.839Z,101891.88
2019-04-16T22:50:17.377Z,101894.59
2019-04-16T22:52:46.986Z,101894.22
2019-04-16T22:55:16.502Z,101895.55
2019-04-16T22:57:45.932Z,101896.41
2019-04-16T23:00:17.159Z,101901.62
2019-04-16T23:02:48.258Z,101900.79
2019-04-16T23:05:18.163Z,101900.83
2019-04-16T23:07:47.583Z,101897.37
2019-04-16T23:10:17.882Z,101898.27
2019-04-16T23:12:48.143Z,101900.87
2019-04-16T23:15:20.748Z,101903.50
2019-04-16T23:17:50.176Z,101906.57
2019-04-16T23:20:29.179Z,101905.70
2019-04-16T23:22:50.734Z,101903.97
2019-04-16T23:25:26.769Z,101908.27
2019-04-16T23:27:54.918Z,101913.94
2019-04-16T23:30:24.412Z,101911.34
2019-04-16T23:32:59.057Z,101920.44
2019-04-16T23:35:25.119Z,101919.58
2019-04-16T23:37:59.304Z,101913.98
2019-04-16T23:40:31.719Z,101914.84
2019-04-16T23:43:22.197Z,101920.92
2019-04-16T23:45:56.231Z,101918.78
2019-04-16T23:48:44.777Z,101917.91
2019-04-16T23:51:34.392Z,101917.50
2019-04-16T23:54:20.571Z,101913.19
2019-04-16T23:56:52.888Z,101917.08
2019-04-16T23:59:27.153Z,101913.62
